createdAt,value
2018-01-06T00:01:43.392Z,90.30
2018-01-06T00:04:10.881Z,89.90
2018-01-06T00:06:38.409Z,90.00
2018-01-06T00:09:05.868Z,90.10
2018-01-06T00:11:33.378Z,90.10
2018-01-06T00:14:01.613Z,90.20
2018-01-06T00:16:29.068Z,90.10
2018-01-06T00:18:56.544Z,90.20
2018-01-06T00:21:24.023Z,90.60
2018-01-06T00:23:51.475Z,90.30
2018-01-06T00:26:18.932Z,90.40
2018-01-06T00:28:46.394Z,90.60
2018-01-06T00:31:14.620Z,90.50
2018-01-06T00:33:42.110Z,90.50
2018-01-06T00:36:09.585Z,90.50
2018-01-06T00:38:37.856Z,90.50
2018-01-06T00:41:06.082Z,90.60
2018-01-06T00:43:33.633Z,90.60
2018-01-06T00:46:01.240Z,90.60
2018-01-06T00:48:28.698Z,90.70
2018-01-06T00:50:56.206Z,90.80
2018-01-06T00:53:23.658Z,90.80
2018-01-06T00:55:51.124Z,91.20
2018-01-06T00:58:18.580Z,91.30
2018-01-06T01:00:46.044Z,91.40
2018-01-06T01:03:13.501Z,91.30
2018-01-06T01:05:40.961Z,91.50
2018-01-06T01:08:08.425Z,91.60
2018-01-06T01:10:36.157Z,91.70
2018-01-06T01:13:03.621Z,91.50
2018-01-06T01:15:31.088Z,91.60
2018-01-06T01:17:58.540Z,92.00
2018-01-06T01:20:26.004Z,91.70
2018-01-06T01:22:53.548Z,91.60
2018-01-06T01:25:21.020Z,91.70
2018-01-06T01:27:48.484Z,91.60
2018-01-06T01:30:15.942Z,91.50
2018-01-06T01:32:43.408Z,91.60
2018-01-06T01:35:10.864Z,91.40
2018-01-06T01:37:38.329Z,91.30
2018-01-06T01:40:06.560Z,91.40
2018-01-06T01:42:34.017Z,91.40
2018-01-06T01:45:01.472Z,91.40
2018-01-06T01:47:28.942Z,91.30
2018-01-06T01:49:56.396Z,91.20
2018-01-06T01:52:23.890Z,91.20
2018-01-06T01:54:51.344Z,91.30
2018-01-06T01:57:18.896Z,91.20
2018-01-06T01:59:46.457Z,91.10
2018-01-06T02:02:14.304Z,91.20
2018-01-06T02:04:41.787Z,91.10
2018-01-06T02:07:09.355Z,91.10
2018-01-06T02:09:36.819Z,91.10
2018-01-06T02:12:05.045Z,91.10
2018-01-06T02:14:32.500Z,91.10
2018-01-06T02:16:59.984Z,91.20
2018-01-06T02:19:27.445Z,91.20
2018-01-06T02:21:54.901Z,91.30
2018-01-06T02:24:23.202Z,91.20
2018-01-06T02:26:51.452Z,91.40
2018-01-06T02:29:18.924Z,91.30
2018-01-06T02:31:46.398Z,91.40
2018-01-06T02:34:14.620Z,91.50
2018-01-06T02:36:42.114Z,91.50
2018-01-06T02:39:10.332Z,91.50
2018-01-06T02:41:37.842Z,91.40
2018-01-06T02:44:06.878Z,91.60
2018-01-06T02:46:34.408Z,91.40
2018-01-06T02:49:02.629Z,91.40
2018-01-06T02:51:30.086Z,91.40
2018-01-06T02:53:57.545Z,91.50
2018-01-06T02:56:25.000Z,91.50
2018-01-06T02:58:52.457Z,91.60
2018-01-06T03:01:19.907Z,91.50
2018-01-06T03:03:47.388Z,91.40
2018-01-06T03:06:14.853Z,91.40
2018-01-06T03:08:42.300Z,91.30
2018-01-06T03:11:09.771Z,91.30
2018-01-06T03:13:37.221Z,91.40
2018-01-06T03:16:04.672Z,91.40
2018-01-06T03:18:32.128Z,91.40
2018-01-06T03:20:59.683Z,91.30
2018-01-06T03:23:27.254Z,91.40
2018-01-06T03:25:54.709Z,91.50
2018-01-06T03:28:22.160Z,91.50
2018-01-06T03:30:49.616Z,91.70
2018-01-06T03:33:17.097Z,91.90
2018-01-06T03:35:44.653Z,92.10
2018-01-06T03:38:12.124Z,92.00
2018-01-06T03:40:40.340Z,92.10
2018-01-06T03:43:07.802Z,92.10
2018-01-06T03:45:35.298Z,92.10
2018-01-06T03:48:02.842Z,92.10
2018-01-06T03:50:30.288Z,92.10
2018-01-06T03:52:57.745Z,92.10
2018-01-06T03:55:25.304Z,92.10
2018-01-06T03:57:52.755Z,92.10
2018-01-06T04:00:20.211Z,92.00
2018-01-06T04:02:47.667Z,91.80
2018-01-06T04:05:15.133Z,91.80
2018-01-06T04:07:42.687Z,91.80
2018-01-06T04:10:10.150Z,91.80
2018-01-06T04:12:37.599Z,91.90
2018-01-06T04:15:05.160Z,91.70
2018-01-06T04:17:32.626Z,91.70
2018-01-06T04:20:00.081Z,91.70
2018-01-06T04:22:27.536Z,91.70
2018-01-06T04:24:54.999Z,91.60
2018-01-06T04:27:22.552Z,91.50
2018-01-06T04:29:50.032Z,91.40
2018-01-06T04:32:18.248Z,92.00
2018-01-06T04:34:45.801Z,91.70
2018-01-06T04:37:13.362Z,91.70
2018-01-06T04:39:40.837Z,91.70
2018-01-06T04:42:08.277Z,91.80
2018-01-06T04:44:35.754Z,91.90
2018-01-06T04:47:03.221Z,91.90
2018-01-06T04:49:30.792Z,91.90
2018-01-06T04:51:58.251Z,91.80
2018-01-06T04:54:25.801Z,91.80
2018-01-06T04:56:53.397Z,91.80
2018-01-06T04:59:21.607Z,91.80
2018-01-06T05:01:49.076Z,91.80
2018-01-06T05:04:16.658Z,91.80
2018-01-06T05:06:44.220Z,91.80
2018-01-06T05:09:11.764Z,91.90
2018-01-06T05:11:39.223Z,91.80
2018-01-06T05:14:07.086Z,92.30
2018-01-06T05:16:34.653Z,91.90
2018-01-06T05:19:02.097Z,92.10
2018-01-06T05:21:29.547Z,92.10
2018-01-06T05:23:57.298Z,92.10
2018-01-06T05:26:24.752Z,92.10
2018-01-06T05:28:52.216Z,92.00
2018-01-06T05:31:19.678Z,92.00
2018-01-06T05:33:47.136Z,92.00
2018-01-06T05:36:14.669Z,92.00
2018-01-06T05:38:42.163Z,92.00
2018-01-06T05:41:09.727Z,92.10
2018-01-06T05:43:37.282Z,92.10
2018-01-06T05:46:04.743Z,92.00
2018-01-06T05:48:32.303Z,92.00
2018-01-06T05:50:59.921Z,92.00
2018-01-06T05:53:27.377Z,92.00
2018-01-06T05:55:54.832Z,92.00
2018-01-06T05:58:22.341Z,92.00
2018-01-06T06:00:49.799Z,92.00
2018-01-06T06:03:17.252Z,91.90
2018-01-06T06:05:45.487Z,92.00
2018-01-06T06:08:13.036Z,92.00
2018-01-06T06:10:40.490Z,92.00
2018-01-06T06:13:07.948Z,92.00
2018-01-06T06:15:35.404Z,92.00
2018-01-06T06:18:02.964Z,92.20
2018-01-06T06:20:30.416Z,92.20
2018-01-06T06:22:57.912Z,92.20
2018-01-06T06:25:25.364Z,92.30
2018-01-06T06:27:52.816Z,92.40
2018-01-06T06:30:20.282Z,92.80
2018-01-06T06:32:47.740Z,92.30
2018-01-06T06:35:15.305Z,92.30
2018-01-06T06:37:42.864Z,92.30
2018-01-06T06:40:10.425Z,92.40
2018-01-06T06:42:37.876Z,92.50
2018-01-06T06:45:05.346Z,92.40
2018-01-06T06:47:32.793Z,92.60
2018-01-06T06:50:00.362Z,92.40
2018-01-06T06:52:27.905Z,92.40
2018-01-06T06:54:55.360Z,92.40
2018-01-06T06:57:22.815Z,92.30
2018-01-06T06:59:51.063Z,92.40
2018-01-06T07:02:18.512Z,92.50
2018-01-06T07:04:45.965Z,92.40
2018-01-06T07:07:13.459Z,92.50
2018-01-06T07:09:40.920Z,92.50
2018-01-06T07:12:08.374Z,92.60
2018-01-06T07:14:35.933Z,92.40
2018-01-06T07:17:03.492Z,92.50
2018-01-06T07:19:30.940Z,92.30
2018-01-06T07:21:58.399Z,92.10
2018-01-06T07:24:25.864Z,92.00
2018-01-06T07:26:53.325Z,91.90
2018-01-06T07:29:21.558Z,91.90
2018-01-06T07:31:49.016Z,91.90
2018-01-06T07:34:16.477Z,91.90
2018-01-06T07:36:43.982Z,91.80
2018-01-06T07:39:11.431Z,91.80
2018-01-06T07:41:38.996Z,91.80
2018-01-06T07:44:06.546Z,91.80
2018-01-06T07:46:33.996Z,92.10
2018-01-06T07:49:01.462Z,91.90
2018-01-06T07:51:28.909Z,91.80
2018-01-06T07:53:56.367Z,91.90
2018-01-06T07:56:23.927Z,91.70
2018-01-06T07:58:51.380Z,91.80
2018-01-06T08:01:18.947Z,91.70
2018-01-06T08:03:46.563Z,91.70
2018-01-06T08:06:14.060Z,91.70
2018-01-06T08:08:41.513Z,91.60
2018-01-06T08:11:09.730Z,91.50
2018-01-06T08:13:37.198Z,91.40
2018-01-06T08:16:04.672Z,91.40
2018-01-06T08:18:32.159Z,91.30
2018-01-06T08:20:59.608Z,91.20
2018-01-06T08:23:27.073Z,91.20
2018-01-06T08:25:54.648Z,91.20
2018-01-06T08:28:22.914Z,91.10
2018-01-06T08:30:50.462Z,91.10
2018-01-06T08:33:17.916Z,91.10
2018-01-06T08:35:45.367Z,91.10
2018-01-06T08:38:12.845Z,91.10
2018-01-06T08:40:40.325Z,91.10
2018-01-06T08:43:08.556Z,91.00
2018-01-06T08:45:36.086Z,91.00
2018-01-06T08:48:03.645Z,91.00
2018-01-06T08:50:31.118Z,90.90
2018-01-06T08:52:58.587Z,90.80
2018-01-06T08:55:26.050Z,90.80
2018-01-06T08:57:53.505Z,90.60
2018-01-06T09:00:20.979Z,90.60
2018-01-06T09:02:48.428Z,90.40
2018-01-06T09:05:15.884Z,90.30
2018-01-06T09:07:43.399Z,90.20
2018-01-06T09:10:11.604Z,90.00
2018-01-06T09:12:39.060Z,90.00
2018-01-06T09:15:06.540Z,90.00
2018-01-06T09:17:34.084Z,89.60
2018-01-06T09:20:01.536Z,89.50
2018-01-06T09:22:28.991Z,89.40
2018-01-06T09:24:56.501Z,89.50
2018-01-06T09:27:24.012Z,89.00
2018-01-06T09:29:51.529Z,89.30
2018-01-06T09:32:19.065Z,89.20
2018-01-06T09:34:47.298Z,88.60
2018-01-06T09:37:14.757Z,88.50
2018-01-06T09:39:42.320Z,88.70
2018-01-06T09:42:09.858Z,88.50
2018-01-06T09:44:37.328Z,87.90
2018-01-06T09:47:04.955Z,87.70
2018-01-06T09:49:32.420Z,87.70
2018-01-06T09:51:59.887Z,87.70
2018-01-06T09:54:27.362Z,87.00
2018-01-06T09:56:54.808Z,87.40
2018-01-06T09:59:22.274Z,86.70
2018-01-06T10:01:49.748Z,84.10
2018-01-06T10:04:17.238Z,85.10
2018-01-06T10:06:44.752Z,83.20
2018-01-06T10:09:12.310Z,82.70
2018-01-06T10:11:39.768Z,83.10
2018-01-06T10:14:07.361Z,82.40
2018-01-06T10:16:34.980Z,82.50
2018-01-06T10:19:02.505Z,81.50
2018-01-06T10:21:29.968Z,78.00
2018-01-06T10:23:57.440Z,76.30
2018-01-06T10:26:24.938Z,77.70
2018-01-06T10:28:53.197Z,78.10
2018-01-06T10:31:20.686Z,78.00
2018-01-06T10:33:48.277Z,76.60
2018-01-06T10:36:15.825Z,77.40
2018-01-06T10:38:43.292Z,77.70
2018-01-06T10:41:10.779Z,77.80
2018-01-06T10:43:38.297Z,77.20
2018-01-06T10:46:05.762Z,76.50
2018-01-06T10:48:33.356Z,76.50
2018-01-06T10:51:00.838Z,77.90
2018-01-06T10:53:29.069Z,78.70
2018-01-06T10:58:30.515Z,78.80
2018-01-06T11:01:03.710Z,76.40
2018-01-06T11:03:31.212Z,76.70
2018-01-06T11:05:58.755Z,75.80
2018-01-06T11:08:26.212Z,78.00
2018-01-06T11:10:54.498Z,80.50
2018-01-06T11:13:22.049Z,80.50
2018-01-06T11:15:49.603Z,81.20
2018-01-06T11:18:17.176Z,81.10
2018-01-06T11:20:44.729Z,79.00
2018-01-06T11:23:12.213Z,79.20
2018-01-06T11:25:40.480Z,80.60
2018-01-06T11:28:07.953Z,80.50
2018-01-06T11:30:35.419Z,80.90
2018-01-06T11:33:03.020Z,81.20
2018-01-06T11:35:30.488Z,80.80
2018-01-06T11:37:58.059Z,81.50
2018-01-06T11:40:25.509Z,82.00
2018-01-06T11:42:53.059Z,82.50
2018-01-06T11:45:20.525Z,83.00
2018-01-06T11:47:48.072Z,83.20
2018-01-06T11:50:15.533Z,82.90
2018-01-06T11:52:42.984Z,82.90
2018-01-06T11:55:10.447Z,82.00
2018-01-06T11:57:38.008Z,82.90
2018-01-06T12:00:05.580Z,83.20
2018-01-06T12:02:33.040Z,82.20
2018-01-06T12:05:01.268Z,80.60
2018-01-06T12:07:30.008Z,81.10
2018-01-06T12:10:00.483Z,74.20
2018-01-06T12:12:27.994Z,74.10
2018-01-06T12:14:56.240Z,76.80
2018-01-06T12:17:23.804Z,76.70
2018-01-06T12:19:51.641Z,78.60
2018-01-06T12:22:20.638Z,77.30
2018-01-06T12:24:48.678Z,77.10
2018-01-06T12:27:16.188Z,79.80
2018-01-06T12:29:43.744Z,79.60
2018-01-06T12:32:11.195Z,79.80
2018-01-06T12:34:38.663Z,80.70
2018-01-06T12:37:06.133Z,80.50
2018-01-06T12:39:34.369Z,81.90
2018-01-06T12:42:01.845Z,81.00
2018-01-06T12:44:29.311Z,81.40
2018-01-06T12:46:56.778Z,81.10
2018-01-06T12:49:25.041Z,78.70
2018-01-06T12:51:53.320Z,78.70
2018-01-06T12:54:20.820Z,78.60
2018-01-06T12:56:48.323Z,78.00
2018-01-06T12:59:15.788Z,78.60
2018-01-06T13:01:44.020Z,80.30
2018-01-06T13:04:11.482Z,80.10
2018-01-06T13:06:38.997Z,79.80
2018-01-06T13:09:07.226Z,80.40
2018-01-06T13:11:34.710Z,80.30
2018-01-06T13:14:02.220Z,80.60
2018-01-06T13:16:29.720Z,80.40
2018-01-06T13:18:57.209Z,80.60
2018-01-06T13:21:25.485Z,80.30
2018-01-06T13:23:53.739Z,80.70
2018-01-06T13:26:22.015Z,81.00
2018-01-06T13:28:49.518Z,80.90
2018-01-06T13:31:17.060Z,81.10
2018-01-06T13:33:44.537Z,81.80
2018-01-06T13:36:11.997Z,81.70
2018-01-06T13:38:39.460Z,81.50
2018-01-06T13:41:06.947Z,81.60
2018-01-06T13:43:34.421Z,81.70
2018-01-06T13:46:01.868Z,81.50
2018-01-06T13:48:29.322Z,81.80
2018-01-06T13:50:56.780Z,81.60
2018-01-06T13:53:24.242Z,81.50
2018-01-06T13:55:51.700Z,81.90
2018-01-06T13:58:19.200Z,81.80
2018-01-06T14:00:46.727Z,81.10
2018-01-06T14:03:14.952Z,81.50
2018-01-06T14:05:42.424Z,81.50
2018-01-06T14:08:09.954Z,81.80
2018-01-06T14:10:38.532Z,81.60
2018-01-06T14:13:06.188Z,81.60
2018-01-06T14:15:33.643Z,81.80
2018-01-06T14:18:01.111Z,81.80
2018-01-06T14:20:28.655Z,81.90
2018-01-06T14:22:56.171Z,81.70
2018-01-06T14:25:24.422Z,82.10
2018-01-06T14:27:51.902Z,82.00
2018-01-06T14:30:19.542Z,82.10
2018-01-06T14:32:47.018Z,82.60
2018-01-06T14:35:14.476Z,83.00
2018-01-06T14:37:42.019Z,82.60
2018-01-06T14:40:09.436Z,82.60
2018-01-06T14:42:36.941Z,82.90
2018-01-06T14:45:04.512Z,83.20
2018-01-06T14:47:32.790Z,83.50
2018-01-06T14:50:00.249Z,83.40
2018-01-06T14:52:28.490Z,83.00
2018-01-06T14:54:55.953Z,82.80
2018-01-06T14:57:23.664Z,82.60
2018-01-06T14:59:51.250Z,82.70
2018-01-06T15:02:18.838Z,82.90
2018-01-06T15:04:46.296Z,83.10
2018-01-06T15:07:13.865Z,83.40
2018-01-06T15:09:41.322Z,83.40
2018-01-06T15:12:09.863Z,83.60
2018-01-06T15:14:37.328Z,83.70
2018-01-06T15:17:04.827Z,83.90
2018-01-06T15:19:33.190Z,83.60
2018-01-06T15:22:00.653Z,83.50
2018-01-06T15:24:28.231Z,83.30
2018-01-06T15:26:56.503Z,83.50
2018-01-06T15:29:24.932Z,83.70
2018-01-06T15:31:52.386Z,83.60
2018-01-06T15:34:20.042Z,83.60
2018-01-06T15:36:47.552Z,83.40
2018-01-06T15:39:15.016Z,83.40
2018-01-06T15:41:43.396Z,83.00
2018-01-06T15:44:11.660Z,83.40
2018-01-06T15:46:39.895Z,84.40
2018-01-06T15:49:12.316Z,83.50
2018-01-06T15:51:40.547Z,83.60
2018-01-06T15:54:08.103Z,83.40
2018-01-06T15:56:35.584Z,83.60
2018-01-06T15:59:03.143Z,83.70
2018-01-06T16:01:30.626Z,83.80
2018-01-06T16:03:58.103Z,83.90
2018-01-06T16:06:25.592Z,83.80
2018-01-06T16:08:53.052Z,83.80
2018-01-06T16:11:20.523Z,83.70
2018-01-06T16:13:47.983Z,83.50
2018-01-06T16:16:15.564Z,83.60
2018-01-06T16:18:43.844Z,84.10
2018-01-06T16:21:12.070Z,84.00
2018-01-06T16:23:39.548Z,84.00
2018-01-06T16:26:07.008Z,84.00
2018-01-06T16:28:34.488Z,83.90
2018-01-06T16:31:02.734Z,84.10
2018-01-06T16:33:30.261Z,84.10
2018-01-06T16:35:57.727Z,84.00
2018-01-06T16:38:25.192Z,84.00
2018-01-06T16:40:52.682Z,84.10
2018-01-06T16:43:20.132Z,84.30
2018-01-06T16:45:47.707Z,84.30
2018-01-06T16:48:15.960Z,84.50
2018-01-06T16:50:43.525Z,85.20
2018-01-06T16:53:11.013Z,84.50
2018-01-06T16:55:39.239Z,84.70
2018-01-06T16:58:06.717Z,84.70
2018-01-06T17:00:34.223Z,84.90
2018-01-06T17:03:01.697Z,84.90
2018-01-06T17:05:29.212Z,84.70
2018-01-06T17:07:57.474Z,85.10
2018-01-06T17:10:25.713Z,85.10
2018-01-06T17:12:53.177Z,85.10
2018-01-06T17:15:20.643Z,85.10
2018-01-06T17:17:48.264Z,85.30
2018-01-06T17:20:15.720Z,85.50
2018-01-06T17:22:43.200Z,85.60
2018-01-06T17:25:10.701Z,85.80
2018-01-06T17:27:38.937Z,85.80
2018-01-06T17:30:06.416Z,85.80
2018-01-06T17:32:33.928Z,85.90
2018-01-06T17:35:01.707Z,85.90
2018-01-06T17:37:29.198Z,85.80
2018-01-06T17:39:56.919Z,86.60
2018-01-06T17:42:25.487Z,85.80
2018-01-06T17:44:53.279Z,85.80
2018-01-06T17:47:20.770Z,85.80
2018-01-06T17:49:48.230Z,85.80
2018-01-06T17:52:16.500Z,85.90
2018-01-06T17:54:44.635Z,85.90
2018-01-06T17:57:12.126Z,85.90
2018-01-06T17:59:39.642Z,85.90
2018-01-06T18:02:07.152Z,85.70
2018-01-06T18:04:35.372Z,85.90
2018-01-06T18:07:02.874Z,85.90
2018-01-06T18:09:31.198Z,85.90
2018-01-06T18:11:58.714Z,85.80
2018-01-06T18:14:26.986Z,86.40
2018-01-06T18:16:54.667Z,86.40
2018-01-06T18:19:22.153Z,86.60
2018-01-06T18:21:49.674Z,86.60
2018-01-06T18:24:17.907Z,86.60
2018-01-06T18:26:45.367Z,86.60
2018-01-06T18:29:12.881Z,86.60
2018-01-06T18:31:40.354Z,86.60
2018-01-06T18:34:08.634Z,87.00
2018-01-06T18:36:36.101Z,86.70
2018-01-06T18:39:03.568Z,87.00
2018-01-06T18:41:31.037Z,86.90
2018-01-06T18:43:58.536Z,86.80
2018-01-06T18:46:25.988Z,86.70
2018-01-06T18:48:53.473Z,86.90
2018-01-06T18:51:20.962Z,86.80
2018-01-06T18:53:48.448Z,87.00
2018-01-06T18:56:16.684Z,87.30
2018-01-06T18:58:44.147Z,87.20
2018-01-06T19:01:11.604Z,87.20
2018-01-06T19:03:39.828Z,87.40
2018-01-06T19:06:07.284Z,87.30
2018-01-06T19:08:34.744Z,87.50
2018-01-06T19:11:02.228Z,87.60
2018-01-06T19:13:29.699Z,87.70
2018-01-06T19:15:57.210Z,87.60
2018-01-06T19:18:24.794Z,87.90
2018-01-06T19:20:52.355Z,87.90
2018-01-06T19:23:19.837Z,87.80
2018-01-06T19:25:47.295Z,87.90
2018-01-06T19:28:14.780Z,88.00
2018-01-06T19:30:43.008Z,88.90
2018-01-06T19:33:10.490Z,88.00
2018-01-06T19:35:37.965Z,88.10
2018-01-06T19:38:06.200Z,88.30
2018-01-06T19:40:33.967Z,88.20
2018-01-06T19:43:01.387Z,88.30
2018-01-06T19:45:28.966Z,88.30
2018-01-06T19:47:56.423Z,88.20
2018-01-06T19:50:23.901Z,88.20
2018-01-06T19:52:51.381Z,88.10
2018-01-06T19:55:18.849Z,88.10
2018-01-06T19:57:47.077Z,88.20
2018-01-06T20:00:14.535Z,88.10
2018-01-06T20:02:42.007Z,88.10
2018-01-06T20:05:09.506Z,88.10
2018-01-06T20:07:37.746Z,88.20
2018-01-06T20:10:05.228Z,88.10
2018-01-06T20:12:33.456Z,88.30
2018-01-06T20:15:01.018Z,88.10
2018-01-06T20:17:28.483Z,88.20
2018-01-06T20:19:56.019Z,88.10
2018-01-06T20:22:23.481Z,88.20
2018-01-06T20:24:51.135Z,88.20
2018-01-06T20:27:18.605Z,88.20
2018-01-06T20:29:46.074Z,88.30
2018-01-06T20:32:13.544Z,88.40
2018-01-06T20:34:41.011Z,88.30
2018-01-06T20:37:08.480Z,88.30
2018-01-06T20:39:36.719Z,88.40
2018-01-06T20:42:04.665Z,88.40
2018-01-06T20:44:32.127Z,88.70
2018-01-06T20:46:59.583Z,88.60
2018-01-06T20:49:27.160Z,88.50
2018-01-06T20:51:54.706Z,88.40
2018-01-06T20:54:22.157Z,88.60
2018-01-06T20:56:49.620Z,88.80
2018-01-06T20:59:17.091Z,88.90
2018-01-06T21:01:45.351Z,89.00
2018-01-06T21:04:12.808Z,89.00
2018-01-06T21:06:40.287Z,89.00
2018-01-06T21:09:07.802Z,89.30
2018-01-06T21:11:35.258Z,89.40
2018-01-06T21:14:02.713Z,89.50
2018-01-06T21:16:30.192Z,89.70
2018-01-06T21:18:57.652Z,90.00
2018-01-06T21:21:25.188Z,90.00
2018-01-06T21:23:52.714Z,90.10
2018-01-06T21:26:20.221Z,90.10
2018-01-06T21:28:47.692Z,90.20
2018-01-06T21:31:15.217Z,90.10
2018-01-06T21:33:42.673Z,90.00
2018-01-06T21:36:10.150Z,90.10
2018-01-06T21:38:37.616Z,90.00
2018-01-06T21:41:05.110Z,90.50
2018-01-06T21:43:33.344Z,90.20
2018-01-06T21:46:00.805Z,90.10
2018-01-06T21:48:28.276Z,90.00
2018-01-06T21:50:55.731Z,90.00
2018-01-06T21:53:23.206Z,89.90
2018-01-06T21:55:51.446Z,90.00
2018-01-06T21:58:18.919Z,89.80
2018-01-06T22:00:46.373Z,90.00
2018-01-06T22:03:13.842Z,90.00
2018-01-06T22:05:41.317Z,90.00
2018-01-06T22:08:09.556Z,89.90
2018-01-06T22:10:37.061Z,89.80
2018-01-06T22:13:04.523Z,89.90
2018-01-06T22:15:31.985Z,90.10
2018-01-06T22:17:59.452Z,90.10
2018-01-06T22:20:26.907Z,90.10
2018-01-06T22:22:54.364Z,90.10
2018-01-06T22:25:21.849Z,90.10
2018-01-06T22:27:49.317Z,90.10
2018-01-06T22:30:16.786Z,90.10
2018-01-06T22:32:44.261Z,90.30
2018-01-06T22:35:12.494Z,90.00
2018-01-06T22:37:39.948Z,89.90
2018-01-06T22:40:07.444Z,90.00
2018-01-06T22:42:34.908Z,90.00
2018-01-06T22:45:03.133Z,89.80
2018-01-06T22:47:30.610Z,89.70
2018-01-06T22:49:58.071Z,90.00
2018-01-06T22:52:25.542Z,89.90
2018-01-06T22:54:53.010Z,89.60
2018-01-06T22:57:21.235Z,89.70
2018-01-06T22:59:48.697Z,89.70
2018-01-06T23:02:16.162Z,90.00
2018-01-06T23:04:43.639Z,90.00
2018-01-06T23:07:11.877Z,90.30
2018-01-06T23:09:39.331Z,89.90
2018-01-06T23:12:06.793Z,89.70
2018-01-06T23:14:34.251Z,89.50
2018-01-06T23:17:01.711Z,89.30
2018-01-06T23:19:29.180Z,89.30
2018-01-06T23:21:56.700Z,89.40
2018-01-06T23:24:24.154Z,89.20
2018-01-06T23:26:51.614Z,89.30
2018-01-06T23:29:19.062Z,89.20
2018-01-06T23:31:46.541Z,88.30
2018-01-06T23:34:13.999Z,87.90
2018-01-06T23:36:41.459Z,87.50
2018-01-06T23:39:09.676Z,86.90
2018-01-06T23:41:38.027Z,86.90
2018-01-06T23:44:05.441Z,86.80
2018-01-06T23:46:32.896Z,86.70
2018-01-06T23:49:00.347Z,86.60
2018-01-06T23:51:27.800Z,86.40
2018-01-06T23:53:55.253Z,86.40
2018-01-06T23:56:22.708Z,86.10
2018-01-06T23:58:50.167Z,85.20
